sensor_id;sensor_type;location;lat;lon;timestamp;temperature;humidity
54642;DHT22;40536;53.194;5.728;2023-06-19T00:01:48;22.20;99.90
54642;DHT22;40536;53.194;5.728;2023-06-19T00:04:13;22.20;99.90
54642;DHT22;40536;53.194;5.728;2023-06-19T00:06:39;22.10;99.90
54642;DHT22;40536;53.194;5.728;2023-06-19T00:09:06;22.10;99.90
54642;DHT22;40536;53.194;5.728;2023-06-19T00:11:32;22.10;99.90
54642;DHT22;40536;53.194;5.728;2023-06-19T00:13:57;22.10;99.90
54642;DHT22;40536;53.194;5.728;2023-06-19T00:16:23;22.10;99.90
54642;DHT22;40536;53.194;5.728;2023-06-19T00:18:51;22.00;99.90
54642;DHT22;40536;53.194;5.728;2023-06-19T00:21:17;22.00;99.90
54642;DHT22;40536;53.194;5.728;2023-06-19T00:23:43;22.00;99.90
54642;DHT22;40536;53.194;5.728;2023-06-19T00:26:08;22.00;99.90
54642;DHT22;40536;53.194;5.728;2023-06-19T00:28:34;21.90;99.90
54642;DHT22;40536;53.194;5.728;2023-06-19T00:31:04;21.90;99.90
54642;DHT22;40536;53.194;5.728;2023-06-19T00:33:32;21.90;99.90
54642;DHT22;40536;53.194;5.728;2023-06-19T00:35:57;21.90;99.90
54642;DHT22;40536;53.194;5.728;2023-06-19T00:38:23;21.80;99.90
54642;DHT22;40536;53.194;5.728;2023-06-19T00:40:49;21.80;99.90
54642;DHT22;40536;53.194;5.728;2023-06-19T00:43:14;21.80;99.90
54642;DHT22;40536;53.194;5.728;2023-06-19T00:45:40;21.70;99.90
54642;DHT22;40536;53.194;5.728;2023-06-19T00:48:06;21.80;99.90
54642;DHT22;40536;53.194;5.728;2023-06-19T00:50:31;21.70;99.90
54642;DHT22;40536;53.194;5.728;2023-06-19T00:52:59;21.80;99.90
54642;DHT22;40536;53.194;5.728;2023-06-19T00:55:27;21.80;99.90
54642;DHT22;40536;53.194;5.728;2023-06-19T00:57:54;21.80;99.90
54642;DHT22;40536;53.194;5.728;2023-06-19T01:00:20;21.80;99.90
54642;DHT22;40536;53.194;5.728;2023-06-19T01:02:47;21.80;99.90
54642;DHT22;40536;53.194;5.728;2023-06-19T01:05:13;21.80;99.90
54642;DHT22;40536;53.194;5.728;2023-06-19T01:07:58;21.70;99.90
54642;DHT22;40536;53.194;5.728;2023-06-19T01:10:27;21.70;99.90
54642;DHT22;40536;53.194;5.728;2023-06-19T01:13:06;21.60;99.90
54642;DHT22;40536;53.194;5.728;2023-06-19T01:15:35;21.60;99.90
54642;DHT22;40536;53.194;5.728;2023-06-19T01:18:00;21.60;99.90
54642;DHT22;40536;53.194;5.728;2023-06-19T01:20:27;21.50;99.90
54642;DHT22;40536;53.194;5.728;2023-06-19T01:22:54;21.50;99.90
54642;DHT22;40536;53.194;5.728;2023-06-19T01:25:23;21.50;99.90
54642;DHT22;40536;53.194;5.728;2023-06-19T01:27:49;21.50;99.90
54642;DHT22;40536;53.194;5.728;2023-06-19T01:30:17;21.50;99.90
54642;DHT22;40536;53.194;5.728;2023-06-19T01:35:17;21.50;99.90
54642;DHT22;40536;53.194;5.728;2023-06-19T01:37:45;21.50;99.90
54642;DHT22;40536;53.194;5.728;2023-06-19T01:40:13;21.50;99.90
54642;DHT22;40536;53.194;5.728;2023-06-19T01:42:41;21.50;99.90
54642;DHT22;40536;53.194;5.728;2023-06-19T01:45:07;21.50;99.90
54642;DHT22;40536;53.194;5.728;2023-06-19T01:47:33;21.50;99.90
54642;DHT22;40536;53.194;5.728;2023-06-19T01:49:59;21.50;99.90
54642;DHT22;40536;53.194;5.728;2023-06-19T01:52:25;21.50;99.90
54642;DHT22;40536;53.194;5.728;2023-06-19T01:54:51;21.50;99.90
54642;DHT22;40536;53.194;5.728;2023-06-19T01:57:17;21.50;99.90
54642;DHT22;40536;53.194;5.728;2023-06-19T01:59:43;21.60;99.90
54642;DHT22;40536;53.194;5.728;2023-06-19T02:02:09;21.60;99.90
54642;DHT22;40536;53.194;5.728;2023-06-19T02:04:35;21.60;99.90
54642;DHT22;40536;53.194;5.728;2023-06-19T02:07:01;21.60;99.90
54642;DHT22;40536;53.194;5.728;2023-06-19T02:09:27;21.60;99.90
54642;DHT22;40536;53.194;5.728;2023-06-19T02:11:53;21.50;99.90
54642;DHT22;40536;53.194;5.728;2023-06-19T02:14:19;21.40;99.90
54642;DHT22;40536;53.194;5.728;2023-06-19T02:16:44;21.40;99.90
54642;DHT22;40536;53.194;5.728;2023-06-19T02:19:10;21.40;99.90
54642;DHT22;40536;53.194;5.728;2023-06-19T02:21:37;21.40;99.90
54642;DHT22;40536;53.194;5.728;2023-06-19T02:24:03;21.40;99.90
54642;DHT22;40536;53.194;5.728;2023-06-19T02:26:29;21.40;99.90
54642;DHT22;40536;53.194;5.728;2023-06-19T02:28:57;21.40;99.90
54642;DHT22;40536;53.194;5.728;2023-06-19T02:31:23;21.40;99.90
54642;DHT22;40536;53.194;5.728;2023-06-19T02:33:49;21.40;99.90
54642;DHT22;40536;53.194;5.728;2023-06-19T02:36:15;21.40;99.90
54642;DHT22;40536;53.194;5.728;2023-06-19T02:38:49;21.40;99.90
54642;DHT22;40536;53.194;5.728;2023-06-19T02:41:15;21.40;99.90
54642;DHT22;40536;53.194;5.728;2023-06-19T02:43:44;21.30;99.90
54642;DHT22;40536;53.194;5.728;2023-06-19T02:46:10;21.30;99.90
54642;DHT22;40536;53.194;5.728;2023-06-19T02:48:35;21.30;99.90
54642;DHT22;40536;53.194;5.728;2023-06-19T02:51:01;21.20;99.90
54642;DHT22;40536;53.194;5.728;2023-06-19T02:53:27;21.20;99.90
54642;DHT22;40536;53.194;5.728;2023-06-19T02:55:52;21.10;99.90
54642;DHT22;40536;53.194;5.728;2023-06-19T02:58:18;21.10;99.90
54642;DHT22;40536;53.194;5.728;2023-06-19T03:00:46;21.00;99.90
54642;DHT22;40536;53.194;5.728;2023-06-19T03:03:12;20.90;99.90
54642;DHT22;40536;53.194;5.728;2023-06-19T03:05:38;20.80;99.90
54642;DHT22;40536;53.194;5.728;2023-06-19T03:08:04;20.80;99.90
54642;DHT22;40536;53.194;5.728;2023-06-19T03:10:30;20.70;99.90
54642;DHT22;40536;53.194;5.728;2023-06-19T03:12:55;20.60;99.90
54642;DHT22;40536;53.194;5.728;2023-06-19T03:15:24;20.50;99.90
54642;DHT22;40536;53.194;5.728;2023-06-19T03:17:50;20.50;99.90
54642;DHT22;40536;53.194;5.728;2023-06-19T03:20:15;20.40;99.90
54642;DHT22;40536;53.194;5.728;2023-06-19T03:22:42;20.40;99.90
54642;DHT22;40536;53.194;5.728;2023-06-19T03:25:08;20.30;99.90
54642;DHT22;40536;53.194;5.728;2023-06-19T03:27:34;20.30;99.90
54642;DHT22;40536;53.194;5.728;2023-06-19T03:30:04;20.30;99.90
54642;DHT22;40536;53.194;5.728;2023-06-19T03:32:32;20.20;99.90
54642;DHT22;40536;53.194;5.728;2023-06-19T03:34:58;20.20;99.90
54642;DHT22;40536;53.194;5.728;2023-06-19T03:37:24;20.20;99.90
54642;DHT22;40536;53.194;5.728;2023-06-19T03:39:50;20.10;99.90
54642;DHT22;40536;53.194;5.728;2023-06-19T03:42:16;20.10;99.90
54642;DHT22;40536;53.194;5.728;2023-06-19T03:44:41;20.10;99.90
54642;DHT22;40536;53.194;5.728;2023-06-19T03:47:07;20.10;99.90
54642;DHT22;40536;53.194;5.728;2023-06-19T03:49:32;20.10;99.90
54642;DHT22;40536;53.194;5.728;2023-06-19T03:51:58;20.10;99.90
54642;DHT22;40536;53.194;5.728;2023-06-19T03:54:24;20.10;99.90
54642;DHT22;40536;53.194;5.728;2023-06-19T03:56:51;20.10;99.90
54642;DHT22;40536;53.194;5.728;2023-06-19T03:59:17;20.10;99.90
54642;DHT22;40536;53.194;5.728;2023-06-19T04:01:43;20.10;99.90
54642;DHT22;40536;53.194;5.728;2023-06-19T04:04:09;20.10;99.90
54642;DHT22;40536;53.194;5.728;2023-06-19T04:06:34;20.10;99.90
54642;DHT22;40536;53.194;5.728;2023-06-19T04:09:03;20.10;99.90
54642;DHT22;40536;53.194;5.728;2023-06-19T04:11:30;20.10;99.90
54642;DHT22;40536;53.194;5.728;2023-06-19T04:13:55;20.10;99.90
54642;DHT22;40536;53.194;5.728;2023-06-19T04:16:21;20.10;99.90
54642;DHT22;40536;53.194;5.728;2023-06-19T04:18:46;20.20;99.90
54642;DHT22;40536;53.194;5.728;2023-06-19T04:21:13;20.20;99.90
54642;DHT22;40536;53.194;5.728;2023-06-19T04:23:39;20.20;99.90
54642;DHT22;40536;53.194;5.728;2023-06-19T04:26:04;20.20;99.90
54642;DHT22;40536;53.194;5.728;2023-06-19T04:28:30;20.20;99.90
54642;DHT22;40536;53.194;5.728;2023-06-19T04:30:56;20.20;99.90
54642;DHT22;40536;53.194;5.728;2023-06-19T04:33:29;20.30;99.90
54642;DHT22;40536;53.194;5.728;2023-06-19T04:35:55;20.30;99.90
54642;DHT22;40536;53.194;5.728;2023-06-19T04:38:21;20.30;99.90
54642;DHT22;40536;53.194;5.728;2023-06-19T04:40:50;20.30;99.90
54642;DHT22;40536;53.194;5.728;2023-06-19T04:43:16;20.40;99.90
54642;DHT22;40536;53.194;5.728;2023-06-19T04:45:42;20.40;99.90
54642;DHT22;40536;53.194;5.728;2023-06-19T04:48:08;20.40;99.90
54642;DHT22;40536;53.194;5.728;2023-06-19T04:50:34;20.50;99.90
54642;DHT22;40536;53.194;5.728;2023-06-19T04:53:00;20.50;99.90
54642;DHT22;40536;53.194;5.728;2023-06-19T04:55:25;20.50;99.90
54642;DHT22;40536;53.194;5.728;2023-06-19T04:57:51;20.60;99.90
54642;DHT22;40536;53.194;5.728;2023-06-19T05:00:17;20.60;99.90
54642;DHT22;40536;53.194;5.728;2023-06-19T05:02:45;20.60;99.90
54642;DHT22;40536;53.194;5.728;2023-06-19T05:05:13;20.60;99.90
54642;DHT22;40536;53.194;5.728;2023-06-19T05:07:39;20.60;99.90
54642;DHT22;40536;53.194;5.728;2023-06-19T05:10:05;20.60;99.90
54642;DHT22;40536;53.194;5.728;2023-06-19T05:12:31;20.60;99.90
54642;DHT22;40536;53.194;5.728;2023-06-19T05:14:57;20.60;99.90
54642;DHT22;40536;53.194;5.728;2023-06-19T05:17:22;20.60;99.90
54642;DHT22;40536;53.194;5.728;2023-06-19T05:19:48;20.60;99.90
54642;DHT22;40536;53.194;5.728;2023-06-19T05:22:14;20.50;99.90
54642;DHT22;40536;53.194;5.728;2023-06-19T05:24:39;20.60;99.90
54642;DHT22;40536;53.194;5.728;2023-06-19T05:27:05;20.60;99.90
54642;DHT22;40536;53.194;5.728;2023-06-19T05:29:32;20.60;99.90
54642;DHT22;40536;53.194;5.728;2023-06-19T05:31:58;20.80;99.90
54642;DHT22;40536;53.194;5.728;2023-06-19T05:34:25;21.10;99.90
54642;DHT22;40536;53.194;5.728;2023-06-19T05:36:51;21.40;99.90
54642;DHT22;40536;53.194;5.728;2023-06-19T05:39:17;21.40;99.90
54642;DHT22;40536;53.194;5.728;2023-06-19T05:41:44;21.40;99.90
54642;DHT22;40536;53.194;5.728;2023-06-19T05:44:11;21.40;99.90
54642;DHT22;40536;53.194;5.728;2023-06-19T05:46:41;21.40;99.90
54642;DHT22;40536;53.194;5.728;2023-06-19T05:49:07;21.30;99.90
54642;DHT22;40536;53.194;5.728;2023-06-19T05:51:32;21.30;99.90
54642;DHT22;40536;53.194;5.728;2023-06-19T05:53:58;21.30;99.90
54642;DHT22;40536;53.194;5.728;2023-06-19T05:56:29;21.20;99.90
54642;DHT22;40536;53.194;5.728;2023-06-19T05:58:55;21.20;99.90
54642;DHT22;40536;53.194;5.728;2023-06-19T06:01:20;21.20;99.90
54642;DHT22;40536;53.194;5.728;2023-06-19T06:03:46;21.20;99.90
54642;DHT22;40536;53.194;5.728;2023-06-19T06:06:12;21.30;99.90
54642;DHT22;40536;53.194;5.728;2023-06-19T06:08:37;21.30;99.90
54642;DHT22;40536;53.194;5.728;2023-06-19T06:11:03;21.20;99.90
54642;DHT22;40536;53.194;5.728;2023-06-19T06:13:28;21.30;99.90
54642;DHT22;40536;53.194;5.728;2023-06-19T06:15:54;21.30;99.90
54642;DHT22;40536;53.194;5.728;2023-06-19T06:18:20;21.40;99.90
54642;DHT22;40536;53.194;5.728;2023-06-19T06:20:45;21.50;99.90
54642;DHT22;40536;53.194;5.728;2023-06-19T06:23:11;21.60;99.90
54642;DHT22;40536;53.194;5.728;2023-06-19T06:25:37;21.70;99.90
54642;DHT22;40536;53.194;5.728;2023-06-19T06:28:02;21.80;99.90
54642;DHT22;40536;53.194;5.728;2023-06-19T06:30:28;21.90;99.90
54642;DHT22;40536;53.194;5.728;2023-06-19T06:32:55;22.00;99.90
54642;DHT22;40536;53.194;5.728;2023-06-19T06:35:21;21.90;99.90
54642;DHT22;40536;53.194;5.728;2023-06-19T06:37:47;21.90;99.90
54642;DHT22;40536;53.194;5.728;2023-06-19T06:40:15;21.80;99.90
54642;DHT22;40536;53.194;5.728;2023-06-19T06:42:41;21.70;99.90
54642;DHT22;40536;53.194;5.728;2023-06-19T06:45:07;21.60;99.90
54642;DHT22;40536;53.194;5.728;2023-06-19T06:47:34;21.40;99.90
54642;DHT22;40536;53.194;5.728;2023-06-19T06:50:00;21.30;99.90
54642;DHT22;40536;53.194;5.728;2023-06-19T06:52:26;21.10;99.90
54642;DHT22;40536;53.194;5.728;2023-06-19T06:54:53;20.90;99.90
54642;DHT22;40536;53.194;5.728;2023-06-19T06:57:19;20.70;99.90
54642;DHT22;40536;53.194;5.728;2023-06-19T06:59:44;20.60;99.90
54642;DHT22;40536;53.194;5.728;2023-06-19T07:02:10;20.40;99.90
54642;DHT22;40536;53.194;5.728;2023-06-19T07:04:36;20.40;99.90
54642;DHT22;40536;53.194;5.728;2023-06-19T07:07:02;20.20;99.90
54642;DHT22;40536;53.194;5.728;2023-06-19T07:09:29;20.10;99.90
54642;DHT22;40536;53.194;5.728;2023-06-19T07:11:54;20.00;99.90
54642;DHT22;40536;53.194;5.728;2023-06-19T07:14:20;19.90;99.90
54642;DHT22;40536;53.194;5.728;2023-06-19T07:16:46;19.90;99.90
54642;DHT22;40536;53.194;5.728;2023-06-19T07:19:11;19.90;99.90
54642;DHT22;40536;53.194;5.728;2023-06-19T07:21:38;19.80;99.90
54642;DHT22;40536;53.194;5.728;2023-06-19T07:24:05;19.80;99.90
54642;DHT22;40536;53.194;5.728;2023-06-19T07:26:31;19.80;99.90
54642;DHT22;40536;53.194;5.728;2023-06-19T07:28:57;19.80;99.90
54642;DHT22;40536;53.194;5.728;2023-06-19T07:31:23;19.70;99.90
54642;DHT22;40536;53.194;5.728;2023-06-19T07:33:49;19.70;99.90
54642;DHT22;40536;53.194;5.728;2023-06-19T07:36:16;19.60;99.90
54642;DHT22;40536;53.194;5.728;2023-06-19T07:38:42;19.60;99.90
54642;DHT22;40536;53.194;5.728;2023-06-19T07:41:08;19.60;99.90
54642;DHT22;40536;53.194;5.728;2023-06-19T07:43:36;19.60;99.90
54642;DHT22;40536;53.194;5.728;2023-06-19T07:46:02;19.60;99.90
54642;DHT22;40536;53.194;5.728;2023-06-19T07:48:27;19.60;99.90
54642;DHT22;40536;53.194;5.728;2023-06-19T07:50:53;19.60;99.90
54642;DHT22;40536;53.194;5.728;2023-06-19T07:53:19;19.60;99.90
54642;DHT22;40536;53.194;5.728;2023-06-19T07:55:45;19.50;99.90
54642;DHT22;40536;53.194;5.728;2023-06-19T07:58:11;19.50;99.90
54642;DHT22;40536;53.194;5.728;2023-06-19T08:00:37;19.60;99.90
54642;DHT22;40536;53.194;5.728;2023-06-19T08:03:02;19.50;99.90
54642;DHT22;40536;53.194;5.728;2023-06-19T08:05:28;19.60;99.90
54642;DHT22;40536;53.194;5.728;2023-06-19T08:07:55;19.50;99.90
54642;DHT22;40536;53.194;5.728;2023-06-19T08:10:21;19.50;99.90
54642;DHT22;40536;53.194;5.728;2023-06-19T08:12:47;19.50;99.90
54642;DHT22;40536;53.194;5.728;2023-06-19T08:15:12;19.50;99.90
54642;DHT22;40536;53.194;5.728;2023-06-19T08:17:41;19.50;99.90
54642;DHT22;40536;53.194;5.728;2023-06-19T08:20:08;19.60;99.90
54642;DHT22;40536;53.194;5.728;2023-06-19T08:22:34;19.50;99.90
54642;DHT22;40536;53.194;5.728;2023-06-19T08:24:59;19.50;99.90
54642;DHT22;40536;53.194;5.728;2023-06-19T08:27:25;19.60;99.90
54642;DHT22;40536;53.194;5.728;2023-06-19T08:29:51;19.60;99.90
54642;DHT22;40536;53.194;5.728;2023-06-19T08:32:19;19.60;99.90
54642;DHT22;40536;53.194;5.728;2023-06-19T08:34:45;19.70;99.90
54642;DHT22;40536;53.194;5.728;2023-06-19T08:37:10;19.70;99.90
54642;DHT22;40536;53.194;5.728;2023-06-19T08:39:36;19.70;99.90
54642;DHT22;40536;53.194;5.728;2023-06-19T08:42:06;19.70;99.90
54642;DHT22;40536;53.194;5.728;2023-06-19T08:44:33;19.80;99.90
54642;DHT22;40536;53.194;5.728;2023-06-19T08:47:00;19.80;99.90
54642;DHT22;40536;53.194;5.728;2023-06-19T08:49:29;19.80;99.90
54642;DHT22;40536;53.194;5.728;2023-06-19T08:51:55;19.90;99.90
54642;DHT22;40536;53.194;5.728;2023-06-19T08:54:21;19.90;99.90
54642;DHT22;40536;53.194;5.728;2023-06-19T08:56:47;19.90;99.90
54642;DHT22;40536;53.194;5.728;2023-06-19T08:59:17;19.90;99.90
54642;DHT22;40536;53.194;5.728;2023-06-19T09:01:53;20.00;99.90
54642;DHT22;40536;53.194;5.728;2023-06-19T09:04:21;20.00;99.90
54642;DHT22;40536;53.194;5.728;2023-06-19T09:06:47;20.00;99.90
54642;DHT22;40536;53.194;5.728;2023-06-19T09:09:14;20.10;99.90
54642;DHT22;40536;53.194;5.728;2023-06-19T09:11:40;20.20;99.90
54642;DHT22;40536;53.194;5.728;2023-06-19T09:14:09;20.10;99.90
54642;DHT22;40536;53.194;5.728;2023-06-19T09:16:40;20.10;99.90
54642;DHT22;40536;53.194;5.728;2023-06-19T09:19:06;20.20;99.90
54642;DHT22;40536;53.194;5.728;2023-06-19T09:21:32;20.10;99.90
54642;DHT22;40536;53.194;5.728;2023-06-19T09:24:05;20.10;99.90
54642;DHT22;40536;53.194;5.728;2023-06-19T09:26:31;20.00;99.90
54642;DHT22;40536;53.194;5.728;2023-06-19T09:28:57;19.90;99.90
54642;DHT22;40536;53.194;5.728;2023-06-19T09:31:33;19.90;99.90
54642;DHT22;40536;53.194;5.728;2023-06-19T09:33:59;20.00;99.90
54642;DHT22;40536;53.194;5.728;2023-06-19T09:36:25;19.90;99.90
54642;DHT22;40536;53.194;5.728;2023-06-19T09:38:52;19.80;99.90
54642;DHT22;40536;53.194;5.728;2023-06-19T09:41:19;19.80;99.90
54642;DHT22;40536;53.194;5.728;2023-06-19T09:43:47;19.80;99.90
54642;DHT22;40536;53.194;5.728;2023-06-19T09:46:14;19.90;99.90
54642;DHT22;40536;53.194;5.728;2023-06-19T09:48:44;20.00;99.90
54642;DHT22;40536;53.194;5.728;2023-06-19T09:51:23;20.10;99.90
54642;DHT22;40536;53.194;5.728;2023-06-19T09:53:53;20.10;99.90
54642;DHT22;40536;53.194;5.728;2023-06-19T09:56:19;20.30;99.90
54642;DHT22;40536;53.194;5.728;2023-06-19T09:58:49;20.30;99.90
54642;DHT22;40536;53.194;5.728;2023-06-19T10:01:16;20.60;99.90
54642;DHT22;40536;53.194;5.728;2023-06-19T10:03:44;21.40;99.90
54642;DHT22;40536;53.194;5.728;2023-06-19T10:06:14;21.80;99.90
54642;DHT22;40536;53.194;5.728;2023-06-19T10:08:45;22.30;99.90
54642;DHT22;40536;53.194;5.728;2023-06-19T10:11:11;22.90;99.90
54642;DHT22;40536;53.194;5.728;2023-06-19T10:13:39;23.00;99.90
54642;DHT22;40536;53.194;5.728;2023-06-19T10:16:05;22.80;99.90
54642;DHT22;40536;53.194;5.728;2023-06-19T10:18:32;22.50;99.90
54642;DHT22;40536;53.194;5.728;2023-06-19T10:20:58;22.40;99.90
54642;DHT22;40536;53.194;5.728;2023-06-19T10:23:25;22.40;99.90
54642;DHT22;40536;53.194;5.728;2023-06-19T10:30:58;22.40;99.90
54642;DHT22;40536;53.194;5.728;2023-06-19T10:33:26;22.10;99.90
54642;DHT22;40536;53.194;5.728;2023-06-19T10:35:52;22.30;99.90
54642;DHT22;40536;53.194;5.728;2023-06-19T10:38:18;22.40;99.90
54642;DHT22;40536;53.194;5.728;2023-06-19T10:40:46;22.40;99.90
54642;DHT22;40536;53.194;5.728;2023-06-19T10:43:18;22.40;99.90
54642;DHT22;40536;53.194;5.728;2023-06-19T10:45:44;22.50;99.90
54642;DHT22;40536;53.194;5.728;2023-06-19T10:48:10;22.30;99.90
54642;DHT22;40536;53.194;5.728;2023-06-19T10:50:42;22.80;99.90
54642;DHT22;40536;53.194;5.728;2023-06-19T10:53:07;23.00;99.90
54642;DHT22;40536;53.194;5.728;2023-06-19T10:55:33;23.30;99.90
54642;DHT22;40536;53.194;5.728;2023-06-19T10:57:59;23.40;99.90
54642;DHT22;40536;53.194;5.728;2023-06-19T11:00:29;23.30;99.90
54642;DHT22;40536;53.194;5.728;2023-06-19T11:02:56;23.20;99.90
54642;DHT22;40536;53.194;5.728;2023-06-19T11:05:24;23.10;99.90
54642;DHT22;40536;53.194;5.728;2023-06-19T11:07:59;23.00;99.90
54642;DHT22;40536;53.194;5.728;2023-06-19T11:10:27;23.00;99.90
54642;DHT22;40536;53.194;5.728;2023-06-19T11:12:55;23.10;99.90
54642;DHT22;40536;53.194;5.728;2023-06-19T11:15:34;23.20;99.90
54642;DHT22;40536;53.194;5.728;2023-06-19T11:18:02;23.30;99.90
54642;DHT22;40536;53.194;5.728;2023-06-19T11:20:28;23.50;99.90
54642;DHT22;40536;53.194;5.728;2023-06-19T11:22:59;23.90;99.90
54642;DHT22;40536;53.194;5.728;2023-06-19T11:25:35;24.60;99.90
54642;DHT22;40536;53.194;5.728;2023-06-19T11:28:12;24.90;99.90
54642;DHT22;40536;53.194;5.728;2023-06-19T11:30:39;25.10;99.90
54642;DHT22;40536;53.194;5.728;2023-06-19T11:33:21;25.30;99.90
54642;DHT22;40536;53.194;5.728;2023-06-19T11:35:53;25.20;99.90
54642;DHT22;40536;53.194;5.728;2023-06-19T11:38:21;25.00;99.90
54642;DHT22;40536;53.194;5.728;2023-06-19T11:40:47;25.10;99.90
54642;DHT22;40536;53.194;5.728;2023-06-19T11:43:27;25.10;99.90
54642;DHT22;40536;53.194;5.728;2023-06-19T11:45:53;25.30;99.90
54642;DHT22;40536;53.194;5.728;2023-06-19T11:48:23;25.30;99.90
54642;DHT22;40536;53.194;5.728;2023-06-19T11:50:49;25.60;99.90
54642;DHT22;40536;53.194;5.728;2023-06-19T11:53:16;26.00;99.90
54642;DHT22;40536;53.194;5.728;2023-06-19T11:55:42;26.70;99.90
54642;DHT22;40536;53.194;5.728;2023-06-19T11:58:09;27.10;99.90
54642;DHT22;40536;53.194;5.728;2023-06-19T12:00:36;27.30;99.90
54642;DHT22;40536;53.194;5.728;2023-06-19T12:03:03;27.70;99.90
54642;DHT22;40536;53.194;5.728;2023-06-19T12:05:29;27.80;99.90
54642;DHT22;40536;53.194;5.728;2023-06-19T12:07:55;28.10;99.90
54642;DHT22;40536;53.194;5.728;2023-06-19T12:10:20;28.40;99.90
54642;DHT22;40536;53.194;5.728;2023-06-19T12:12:46;28.70;99.90
54642;DHT22;40536;53.194;5.728;2023-06-19T12:15:11;28.60;99.90
54642;DHT22;40536;53.194;5.728;2023-06-19T12:17:37;28.90;99.90
54642;DHT22;40536;53.194;5.728;2023-06-19T12:20:03;29.20;99.90
54642;DHT22;40536;53.194;5.728;2023-06-19T12:22:34;29.10;99.90
54642;DHT22;40536;53.194;5.728;2023-06-19T12:25:00;28.80;99.90
54642;DHT22;40536;53.194;5.728;2023-06-19T12:27:25;28.80;99.90
54642;DHT22;40536;53.194;5.728;2023-06-19T12:29:53;28.60;99.90
54642;DHT22;40536;53.194;5.728;2023-06-19T12:32:19;28.60;99.90
54642;DHT22;40536;53.194;5.728;2023-06-19T12:34:46;28.60;99.90
54642;DHT22;40536;53.194;5.728;2023-06-19T12:37:15;28.40;99.90
54642;DHT22;40536;53.194;5.728;2023-06-19T12:39:43;28.40;99.90
54642;DHT22;40536;53.194;5.728;2023-06-19T12:42:09;28.50;99.90
54642;DHT22;40536;53.194;5.728;2023-06-19T12:44:38;28.60;99.90
54642;DHT22;40536;53.194;5.728;2023-06-19T12:47:04;28.80;99.90
54642;DHT22;40536;53.194;5.728;2023-06-19T12:49:31;28.70;99.90
54642;DHT22;40536;53.194;5.728;2023-06-19T12:51:56;28.70;99.90
54642;DHT22;40536;53.194;5.728;2023-06-19T12:54:22;28.60;99.90
54642;DHT22;40536;53.194;5.728;2023-06-19T12:56:48;28.30;99.90
54642;DHT22;40536;53.194;5.728;2023-06-19T12:59:14;28.20;99.90
54642;DHT22;40536;53.194;5.728;2023-06-19T13:01:41;28.20;99.90
54642;DHT22;40536;53.194;5.728;2023-06-19T13:04:07;28.10;99.90
54642;DHT22;40536;53.194;5.728;2023-06-19T13:06:32;28.10;99.90
54642;DHT22;40536;53.194;5.728;2023-06-19T13:08:58;27.90;99.90
54642;DHT22;40536;53.194;5.728;2023-06-19T13:11:24;27.90;99.90
54642;DHT22;40536;53.194;5.728;2023-06-19T13:13:49;27.90;99.90
54642;DHT22;40536;53.194;5.728;2023-06-19T13:16:15;28.00;99.90
54642;DHT22;40536;53.194;5.728;2023-06-19T13:18:44;28.00;99.90
54642;DHT22;40536;53.194;5.728;2023-06-19T13:21:11;28.00;99.90
54642;DHT22;40536;53.194;5.728;2023-06-19T13:23:36;28.00;99.90
54642;DHT22;40536;53.194;5.728;2023-06-19T13:26:02;27.90;99.90
54642;DHT22;40536;53.194;5.728;2023-06-19T13:28:28;27.60;99.90
54642;DHT22;40536;53.194;5.728;2023-06-19T13:30:54;27.50;99.90
54642;DHT22;40536;53.194;5.728;2023-06-19T13:33:20;27.50;99.90
54642;DHT22;40536;53.194;5.728;2023-06-19T13:35:46;27.40;99.90
54642;DHT22;40536;53.194;5.728;2023-06-19T13:38:12;27.30;99.90
54642;DHT22;40536;53.194;5.728;2023-06-19T13:40:37;27.50;99.90
54642;DHT22;40536;53.194;5.728;2023-06-19T13:43:03;27.40;99.90
54642;DHT22;40536;53.194;5.728;2023-06-19T13:45:31;27.30;99.90
54642;DHT22;40536;53.194;5.728;2023-06-19T13:47:57;27.00;99.90
54642;DHT22;40536;53.194;5.728;2023-06-19T13:50:23;27.00;99.90
54642;DHT22;40536;53.194;5.728;2023-06-19T13:52:49;26.90;99.90
54642;DHT22;40536;53.194;5.728;2023-06-19T13:55:15;26.90;99.90
54642;DHT22;40536;53.194;5.728;2023-06-19T13:57:42;27.10;99.90
54642;DHT22;40536;53.194;5.728;2023-06-19T14:00:09;27.10;99.90
54642;DHT22;40536;53.194;5.728;2023-06-19T14:02:36;27.10;99.90
54642;DHT22;40536;53.194;5.728;2023-06-19T14:05:07;27.30;99.90
54642;DHT22;40536;53.194;5.728;2023-06-19T14:07:34;27.20;99.90
54642;DHT22;40536;53.194;5.728;2023-06-19T14:10:04;27.20;99.90
54642;DHT22;40536;53.194;5.728;2023-06-19T14:12:30;27.20;99.90
54642;DHT22;40536;53.194;5.728;2023-06-19T14:14:56;27.10;99.90
54642;DHT22;40536;53.194;5.728;2023-06-19T14:17:22;27.00;99.90
54642;DHT22;40536;53.194;5.728;2023-06-19T14:19:48;27.00;99.90
54642;DHT22;40536;53.194;5.728;2023-06-19T14:22:14;26.80;99.90
54642;DHT22;40536;53.194;5.728;2023-06-19T14:24:40;27.00;99.90
54642;DHT22;40536;53.194;5.728;2023-06-19T14:27:06;27.10;99.90
54642;DHT22;40536;53.194;5.728;2023-06-19T14:29:33;27.20;99.90
54642;DHT22;40536;53.194;5.728;2023-06-19T14:31:58;27.10;99.90
54642;DHT22;40536;53.194;5.728;2023-06-19T14:34:24;27.10;99.90
54642;DHT22;40536;53.194;5.728;2023-06-19T14:36:50;27.00;99.90
54642;DHT22;40536;53.194;5.728;2023-06-19T14:39:16;27.00;99.90
54642;DHT22;40536;53.194;5.728;2023-06-19T14:41:42;27.10;99.90
54642;DHT22;40536;53.194;5.728;2023-06-19T14:44:07;27.10;99.90
54642;DHT22;40536;53.194;5.728;2023-06-19T14:46:33;27.10;99.90
54642;DHT22;40536;53.194;5.728;2023-06-19T14:49:09;27.00;99.90
54642;DHT22;40536;53.194;5.728;2023-06-19T14:51:35;26.80;99.90
54642;DHT22;40536;53.194;5.728;2023-06-19T14:54:00;26.80;99.90
54642;DHT22;40536;53.194;5.728;2023-06-19T14:56:26;26.70;99.90
54642;DHT22;40536;53.194;5.728;2023-06-19T14:58:52;26.80;99.90
54642;DHT22;40536;53.194;5.728;2023-06-19T15:01:17;26.80;99.90
54642;DHT22;40536;53.194;5.728;2023-06-19T15:03:43;26.80;99.90
54642;DHT22;40536;53.194;5.728;2023-06-19T15:06:08;26.70;99.90
54642;DHT22;40536;53.194;5.728;2023-06-19T15:08:34;26.80;99.90
54642;DHT22;40536;53.194;5.728;2023-06-19T15:11:03;26.80;99.90
54642;DHT22;40536;53.194;5.728;2023-06-19T15:13:30;26.70;99.90
54642;DHT22;40536;53.194;5.728;2023-06-19T15:15:55;26.70;99.90
54642;DHT22;40536;53.194;5.728;2023-06-19T15:18:22;26.70;99.90
54642;DHT22;40536;53.194;5.728;2023-06-19T15:20:47;26.80;99.90
54642;DHT22;40536;53.194;5.728;2023-06-19T15:23:13;26.90;99.90
54642;DHT22;40536;53.194;5.728;2023-06-19T15:25:39;26.90;99.90
54642;DHT22;40536;53.194;5.728;2023-06-19T15:28:04;26.80;99.90
54642;DHT22;40536;53.194;5.728;2023-06-19T15:30:31;26.80;99.90
54642;DHT22;40536;53.194;5.728;2023-06-19T15:32:56;26.80;99.90
54642;DHT22;40536;53.194;5.728;2023-06-19T15:35:22;26.80;99.90